AFL9371 ULLI-UUWW
Flight info
| Callsign | AFL9371 |
|---|---|
| Flight time | N/A |
| Altitude | 35000 |
| Route | SUGIN1B SUGIN T873 NIRGI T73 DESUD T834 ADOKU/K0824F290 T834 BEKIP BEKIP3B |
| Aircraft | A321/M-SDE3FGHIRWY/LB1 |
Departure
| Time | N/A |
|---|---|
| Airport | Pulkovo Airport (ULLI) |
Arrival
| Time | 2026-04-28 13:22 |
|---|---|
| Airport | Vnukovo International Airport (UUWW) |
| Time | Latitude | Longitude | Altitude | Speed | Heading |
|---|---|---|---|---|---|
| 2026-04-28 13:13 | 55.30218 | 37.32800 | 6017 ft | 260 kts | 52° |
| 2026-04-28 13:13 | 55.31138 | 37.35533 | 5723 ft | 257 kts | 48° |
| 2026-04-28 13:13 | 55.32376 | 37.37501 | 5637 ft | 231 kts | 14° |
| 2026-04-28 13:14 | 55.33892 | 37.38279 | 5675 ft | 226 kts | 6° |
| 2026-04-28 13:14 | 55.35435 | 37.38961 | 5706 ft | 227 kts | 7° |
| 2026-04-28 13:14 | 55.36961 | 37.39662 | 5738 ft | 227 kts | 7° |
| 2026-04-28 13:14 | 55.38486 | 37.40375 | 5750 ft | 227 kts | 7° |
| 2026-04-28 13:15 | 55.40019 | 37.41101 | 5754 ft | 227 kts | 7° |
| 2026-04-28 13:15 | 55.41537 | 37.41821 | 5756 ft | 228 kts | 7° |
| 2026-04-28 13:15 | 55.43066 | 37.42551 | 5755 ft | 228 kts | 7° |
| 2026-04-28 13:15 | 55.44600 | 37.43286 | 5676 ft | 230 kts | 7° |
| 2026-04-28 13:16 | 55.46163 | 37.44033 | 5307 ft | 230 kts | 7° |
| 2026-04-28 13:16 | 55.47708 | 37.44776 | 4973 ft | 230 kts | 7° |
| 2026-04-28 13:16 | 55.49261 | 37.45522 | 4644 ft | 230 kts | 7° |
| 2026-04-28 13:16 | 55.50782 | 37.46254 | 4328 ft | 229 kts | 7° |
| 2026-04-28 13:17 | 55.52308 | 37.46993 | 4037 ft | 226 kts | 7° |
| 2026-04-28 13:17 | 55.53830 | 37.47733 | 3740 ft | 225 kts | 7° |
| 2026-04-28 13:17 | 55.55309 | 37.48451 | 3606 ft | 222 kts | 7° |
| 2026-04-28 13:17 | 55.56803 | 37.49173 | 3486 ft | 223 kts | 7° |
| 2026-04-28 13:18 | 55.58296 | 37.49896 | 3324 ft | 223 kts | 6° |
| 2026-04-28 13:18 | 55.59792 | 37.50245 | 3031 ft | 212 kts | 342° |
| 2026-04-28 13:18 | 55.61138 | 37.49378 | 2708 ft | 206 kts | 329° |
| 2026-04-28 13:18 | 55.62432 | 37.48317 | 2405 ft | 206 kts | 329° |
| 2026-04-28 13:19 | 55.63637 | 37.47035 | 2096 ft | 198 kts | 306° |
| 2026-04-28 13:19 | 55.64030 | 37.44864 | 1977 ft | 187 kts | 261° |
| 2026-04-28 13:19 | 55.63438 | 37.42858 | 2116 ft | 178 kts | 239° |
| 2026-04-28 13:19 | 55.62777 | 37.41212 | 2108 ft | 152 kts | 244° |
| 2026-04-28 13:20 | 55.62294 | 37.39694 | 1978 ft | 135 kts | 249° |
| 2026-04-28 13:20 | 55.61888 | 37.38197 | 1817 ft | 133 kts | 251° |
| 2026-04-28 13:20 | 55.61527 | 37.36695 | 1673 ft | 132 kts | 252° |
| 2026-04-28 13:20 | 55.61188 | 37.35198 | 1498 ft | 132 kts | 252° |
| 2026-04-28 13:21 | 55.60852 | 37.33697 | 1310 ft | 131 kts | 252° |
| 2026-04-28 13:21 | 55.60517 | 37.32204 | 1128 ft | 131 kts | 251° |
| 2026-04-28 13:21 | 55.60177 | 37.30697 | 943 ft | 130 kts | 251° |
| 2026-04-28 13:21 | 55.59845 | 37.29218 | 764 ft | 129 kts | 250° |
| 2026-04-28 13:22 | 55.59542 | 37.27851 | 699 ft | 92 kts | 249° |
| 2026-04-28 13:22 | 55.59419 | 37.27283 | 699 ft | 22 kts | 270° |
| 2026-04-28 13:22 | 55.59435 | 37.27221 | 699 ft | 9 kts | 298° |
| 2026-04-28 13:22 | 55.59448 | 37.27150 | 699 ft | 5 kts | 283° |
| 2026-04-28 13:23 | 55.59457 | 37.27078 | 699 ft | 6 kts | 281° |
| 2026-04-28 13:23 | 55.59463 | 37.27031 | 699 ft | 0 kts | 285° |
| 2026-04-28 13:26 | 55.59463 | 37.27030 | 699 ft | 0 kts | 285° |
| 2026-04-28 13:26 | 55.59467 | 37.27006 | 699 ft | 3 kts | 285° |
| 2026-04-28 13:26 | 55.59483 | 37.26949 | 699 ft | 6 kts | 309° |
| 2026-04-28 13:27 | 55.59528 | 37.26888 | 699 ft | 9 kts | 335° |
| 2026-04-28 13:27 | 55.59593 | 37.26926 | 699 ft | 12 kts | 44° |
| 2026-04-28 13:27 | 55.59659 | 37.27044 | 699 ft | 14 kts | 46° |
| 2026-04-28 13:27 | 55.59737 | 37.27186 | 699 ft | 17 kts | 45° |
| 2026-04-28 13:28 | 55.59799 | 37.27298 | 699 ft | 11 kts | 45° |
| 2026-04-28 13:28 | 55.59861 | 37.27411 | 699 ft | 9 kts | 45° |
| 2026-04-28 13:28 | 55.59915 | 37.27517 | 699 ft | 13 kts | 49° |
| 2026-04-28 13:28 | 55.59953 | 37.27611 | 699 ft | 10 kts | 58° |
| 2026-04-28 13:29 | 55.60009 | 37.27723 | 699 ft | 12 kts | 38° |
| 2026-04-28 13:29 | 55.60079 | 37.27823 | 699 ft | 12 kts | 42° |
| 2026-04-28 13:29 | 55.60105 | 37.27927 | 699 ft | 11 kts | 101° |
| 2026-04-28 13:29 | 55.60094 | 37.27980 | 699 ft | 5 kts | 113° |
| 2026-04-28 13:30 | 55.60086 | 37.28035 | 699 ft | 6 kts | 86° |
| 2026-04-28 13:30 | 55.60119 | 37.28108 | 699 ft | 8 kts | 36° |
| 2026-04-28 13:30 | 55.60151 | 37.28150 | 699 ft | 0 kts | 38° |
| 2026-04-28 13:31 | 55.60149 | 37.28149 | 699 ft | 0 kts | 37° |